Time;durP1;ratioP1;P1;durP2;ratioP2;P2;SDS_P1;SDS_P2;PMS_P1;PMS_P2;Temp;Humidity;BMP_temperature;BMP_pressure;BME280_temperature;BME280_humidity;BME280_pressure;Samples;Min_cycle;Max_cycle;Signal;HPM_P1;HPM_P2
2021/11/24 00:01:06;;;;;;;10.57;6.13;;;;;;;;;;4972202;28;20654;-76
2021/11/24 00:04:10;;;;;;;8.80;6.83;;;;;;;;;;4956997;29;20570;-76
2021/11/24 00:07:14;;;;;;;8.37;6.20;;;;;;;;;;4956813;29;20543;-76
2021/11/24 00:10:18;;;;;;;10.00;6.73;;;;;;;;;;4957426;28;20622;-75
2021/11/24 00:13:23;;;;;;;12.07;6.27;;;;;;;;;;4956467;29;20635;-75
2021/11/24 00:16:27;;;;;;;11.17;6.20;;;;;;;;;;4956674;29;20895;-75
2021/11/24 00:19:31;;;;;;;10.17;6.57;;;;;;;;;;4962483;28;20634;-75
2021/11/24 00:22:35;;;;;;;11.87;6.93;;;;;;;;;;4973650;28;20657;-75
2021/11/24 00:25:40;;;;;;;10.67;6.40;;;;;;;;;;4976044;28;21170;-75
2021/11/24 00:28:44;;;;;;;10.97;6.37;;;;;;;;;;4958129;28;20599;-75
2021/11/24 00:31:47;;;;;;;8.10;6.00;;;;;;;;;;4967869;28;20661;-75
2021/11/24 00:34:52;;;;;;;9.13;6.00;;;;;;;;;;4956339;29;20622;-76
2021/11/24 00:37:56;;;;;;;10.63;6.10;;;;;;;;;;4955552;29;20543;-75
2021/11/24 00:41:00;;;;;;;10.03;6.53;;;;;;;;;;4962440;28;20660;-75
2021/11/24 00:44:04;;;;;;;7.70;5.70;;;;;;;;;;4974936;28;20550;-75
2021/11/24 00:47:09;;;;;;;10.23;6.53;;;;;;;;;;4974704;28;20650;-75
2021/11/24 00:50:13;;;;;;;7.97;5.27;;;;;;;;;;4974965;28;20916;-75
2021/11/24 00:53:17;;;;;;;8.27;5.97;;;;;;;;;;4956333;29;20548;-75
2021/11/24 00:56:22;;;;;;;8.87;6.23;;;;;;;;;;4967546;28;20590;-75
2021/11/24 00:59:26;;;;;;;8.77;5.47;;;;;;;;;;4967038;28;20590;-75
2021/11/24 01:02:29;;;;;;;10.07;6.27;;;;;;;;;;4954814;29;20618;-75
2021/11/24 01:05:34;;;;;;;10.53;6.67;;;;;;;;;;4955804;29;20634;-75
2021/11/24 01:08:38;;;;;;;9.93;6.80;;;;;;;;;;4954718;29;20540;-75
2021/11/24 01:11:43;;;;;;;8.87;6.00;;;;;;;;;;4969445;28;21259;-75
2021/11/24 01:14:47;;;;;;;8.77;6.07;;;;;;;;;;4974649;28;20601;-75
2021/11/24 01:17:52;;;;;;;7.93;5.67;;;;;;;;;;4973813;28;20594;-76
2021/11/24 01:20:57;;;;;;;10.97;6.23;;;;;;;;;;4966812;28;20654;-75
2021/11/24 01:24:01;;;;;;;9.77;5.50;;;;;;;;;;4955529;28;20606;-75
2021/11/24 01:27:05;;;;;;;6.97;5.27;;;;;;;;;;4955253;29;20607;-75
2021/11/24 01:30:12;;;;;;;8.70;6.17;;;;;;;;;;4956546;28;20702;-75
2021/11/24 01:33:16;;;;;;;10.17;5.90;;;;;;;;;;4974734;28;20539;-75
2021/11/24 01:36:20;;;;;;;8.47;5.80;;;;;;;;;;4965504;28;20638;-75
2021/11/24 01:39:25;;;;;;;8.50;5.70;;;;;;;;;;4954384;28;20595;-75
2021/11/24 01:42:29;;;;;;;9.27;6.10;;;;;;;;;;4955222;29;20626;-75
2021/11/24 01:45:33;;;;;;;9.87;6.83;;;;;;;;;;4954718;29;21070;-75
2021/11/24 01:48:37;;;;;;;9.20;6.17;;;;;;;;;;4954101;28;20548;-75
2021/11/24 01:51:41;;;;;;;12.63;6.90;;;;;;;;;;4968760;28;20650;-75
2021/11/24 01:54:46;;;;;;;12.00;7.93;;;;;;;;;;4974512;28;20917;-75
2021/11/24 01:57:51;;;;;;;14.87;8.10;;;;;;;;;;4973205;28;20605;-75
2021/11/24 02:00:55;;;;;;;13.33;7.73;;;;;;;;;;4965003;28;20666;-75
2021/11/24 02:03:59;;;;;;;10.30;6.60;;;;;;;;;;4960640;28;20620;-75
2021/11/24 02:07:03;;;;;;;10.90;6.60;;;;;;;;;;4973344;28;20611;-75
2021/11/24 02:10:08;;;;;;;12.93;6.90;;;;;;;;;;4972164;28;20617;-75
2021/11/24 02:13:13;;;;;;;8.57;6.13;;;;;;;;;;4954677;28;21199;-75
2021/11/24 02:16:17;;;;;;;10.43;6.50;;;;;;;;;;4965374;28;20540;-75
2021/11/24 02:19:27;;;;;;;9.70;6.63;;;;;;;;;;4954977;29;20555;-75
2021/11/24 02:22:32;;;;;;;12.47;7.37;;;;;;;;;;4954352;29;20622;-76
2021/11/24 02:25:37;;;;;;;11.87;7.33;;;;;;;;;;4955155;29;20544;-75
2021/11/24 02:28:41;;;;;;;13.53;8.13;;;;;;;;;;4954459;28;20606;-75
2021/11/24 02:31:48;;;;;;;15.03;8.13;;;;;;;;;;4968814;28;21278;-75
2021/11/24 02:34:52;;;;;;;12.87;8.13;;;;;;;;;;4973259;28;20629;-75
2021/11/24 02:37:57;;;;;;;13.23;8.23;;;;;;;;;;4972457;28;20581;-75
2021/11/24 02:41:01;;;;;;;13.93;8.70;;;;;;;;;;4959367;28;20657;-75
2021/11/24 02:44:39;;;;;;;13.53;8.10;;;;;;;;;;4954482;29;20614;-76
2021/11/24 02:47:42;;;;;;;15.07;8.77;;;;;;;;;;4970967;28;20637;-75
2021/11/24 02:50:47;;;;;;;16.13;8.57;;;;;;;;;;4971225;28;20597;-75
2021/11/24 02:53:51;;;;;;;16.53;8.97;;;;;;;;;;4977028;28;20539;-75
2021/11/24 02:56:58;;;;;;;13.53;8.23;;;;;;;;;;4976338;28;20604;-75
2021/11/24 03:00:05;;;;;;;11.50;8.23;;;;;;;;;;4964724;28;20602;-75
2021/11/24 03:03:09;;;;;;;14.77;8.23;;;;;;;;;;4977316;28;20542;-75
2021/11/24 03:06:14;;;;;;;14.53;8.73;;;;;;;;;;4976558;28;20674;-75
2021/11/24 03:09:18;;;;;;;14.43;7.93;;;;;;;;;;4964903;28;20621;-75
2021/11/24 03:12:22;;;;;;;10.60;7.70;;;;;;;;;;4976802;28;20634;-75
2021/11/24 03:15:27;;;;;;;15.23;8.40;;;;;;;;;;4977327;28;21104;-75
2021/11/24 03:18:31;;;;;;;12.03;7.93;;;;;;;;;;4968798;28;20595;-75
2021/11/24 03:21:35;;;;;;;13.00;8.40;;;;;;;;;;4957536;29;21259;-75
2021/11/24 03:24:39;;;;;;;13.80;8.57;;;;;;;;;;4945827;29;20552;-75
2021/11/24 03:27:44;;;;;;;12.80;8.73;;;;;;;;;;4957167;28;20646;-75
2021/11/24 03:30:48;;;;;;;13.23;8.07;;;;;;;;;;4956647;28;20623;-75
2021/11/24 03:33:51;;;;;;;13.27;8.23;;;;;;;;;;4966435;28;20631;-75
2021/11/24 03:36:55;;;;;;;13.50;8.37;;;;;;;;;;4975526;28;20597;-75
2021/11/24 03:40:01;;;;;;;16.13;7.70;;;;;;;;;;4965339;28;20619;-75
2021/11/24 03:43:05;;;;;;;11.00;7.70;;;;;;;;;;4976856;28;20549;-75
2021/11/24 03:46:09;;;;;;;11.43;7.57;;;;;;;;;;4975364;28;20604;-75
2021/11/24 03:49:13;;;;;;;14.50;8.07;;;;;;;;;;4967919;28;20633;-75
2021/11/24 03:52:17;;;;;;;14.53;8.17;;;;;;;;;;4976007;28;20652;-75
2021/11/24 03:55:21;;;;;;;13.50;8.13;;;;;;;;;;4956177;29;21154;-75
2021/11/24 03:58:26;;;;;;;14.17;8.70;;;;;;;;;;4955806;28;20543;-75
2021/11/24 04:01:30;;;;;;;16.37;8.00;;;;;;;;;;4956002;29;20637;-75
2021/11/24 04:04:34;;;;;;;13.57;8.13;;;;;;;;;;4973038;28;20605;-75
2021/11/24 04:07:39;;;;;;;12.67;8.20;;;;;;;;;;4976057;28;20601;-75
2021/11/24 04:10:43;;;;;;;11.77;7.50;;;;;;;;;;4974756;28;21188;-75
2021/11/24 04:13:47;;;;;;;13.30;8.77;;;;;;;;;;4966607;28;20606;-75
2021/11/24 04:16:51;;;;;;;12.87;7.67;;;;;;;;;;4956092;28;20568;-75
2021/11/24 04:19:55;;;;;;;11.83;8.03;;;;;;;;;;4944812;29;20607;-75
2021/11/24 04:22:59;;;;;;;11.33;7.80;;;;;;;;;;4958314;28;20622;-76
2021/11/24 04:26:03;;;;;;;12.73;7.97;;;;;;;;;;4962766;28;21199;-75
2021/11/24 04:29:07;;;;;;;9.87;7.40;;;;;;;;;;4956507;29;20531;-75
2021/11/24 04:32:11;;;;;;;12.73;7.77;;;;;;;;;;4955528;29;20623;-75
2021/11/24 04:35:27;;;;;;;15.43;8.43;;;;;;;;;;4956259;29;20621;-76
2021/11/24 04:38:32;;;;;;;11.83;7.63;;;;;;;;;;4904796;29;20738;-87
2021/11/24 04:41:36;;;;;;;13.10;9.17;;;;;;;;;;4896199;29;20560;-87
2021/11/24 04:44:40;;;;;;;10.53;7.67;;;;;;;;;;4906180;29;20600;-85
2021/11/24 04:47:44;;;;;;;11.53;7.37;;;;;;;;;;4917741;29;20602;-85
2021/11/24 04:50:49;;;;;;;16.03;8.37;;;;;;;;;;4898404;29;20567;-85
2021/11/24 04:53:54;;;;;;;12.97;8.40;;;;;;;;;;4918360;29;20678;-85
2021/11/24 04:56:58;;;;;;;12.30;7.90;;;;;;;;;;4916614;29;20659;-85
2021/11/24 05:00:09;;;;;;;12.70;8.03;;;;;;;;;;4905856;29;20600;-84
2021/11/24 05:03:13;;;;;;;14.20;7.87;;;;;;;;;;4906080;29;20589;-85
2021/11/24 05:06:19;;;;;;;13.70;8.07;;;;;;;;;;4895338;29;20655;-85
2021/11/24 05:09:23;;;;;;;15.83;8.50;;;;;;;;;;4905487;29;20600;-84
2021/11/24 05:12:27;;;;;;;12.43;7.80;;;;;;;;;;4895546;29;20977;-84
2021/11/24 05:15:34;;;;;;;11.63;7.73;;;;;;;;;;4895259;29;21189;-85
2021/11/24 05:18:46;;;;;;;8.70;6.90;;;;;;;;;;4905666;29;20763;-85
2021/11/24 05:21:52;;;;;;;13.10;7.57;;;;;;;;;;4895516;29;20593;-84
2021/11/24 05:24:56;;;;;;;12.77;7.87;;;;;;;;;;4905770;29;20637;-85
2021/11/24 05:28:00;;;;;;;11.70;7.40;;;;;;;;;;4916659;29;20615;-84
2021/11/24 05:31:05;;;;;;;11.20;7.73;;;;;;;;;;4895269;29;20600;-85
2021/11/24 05:34:09;;;;;;;12.73;8.20;;;;;;;;;;4895081;29;20565;-84
2021/11/24 05:37:14;;;;;;;11.40;7.53;;;;;;;;;;4905903;29;20675;-84
2021/11/24 05:40:18;;;;;;;10.77;7.60;;;;;;;;;;4906094;29;20558;-84
2021/11/24 05:43:26;;;;;;;12.70;8.43;;;;;;;;;;4894602;29;20592;-85
2021/11/24 05:46:45;;;;;;;14.17;7.97;;;;;;;;;;4905971;29;20627;-85
2021/11/24 05:49:49;;;;;;;12.57;8.27;;;;;;;;;;4906379;29;20898;-85
2021/11/24 05:52:54;;;;;;;13.90;8.63;;;;;;;;;;4895067;29;20557;-85
2021/11/24 05:55:58;;;;;;;16.30;9.60;;;;;;;;;;4905088;29;20660;-84
2021/11/24 05:59:04;;;;;;;13.70;8.87;;;;;;;;;;4877084;29;20904;-85
2021/11/24 06:02:09;;;;;;;14.73;9.43;;;;;;;;;;4900251;29;20995;-84
2021/11/24 06:05:13;;;;;;;16.27;9.23;;;;;;;;;;4902200;29;20588;-84
2021/11/24 06:08:18;;;;;;;12.83;8.17;;;;;;;;;;4906216;29;20553;-84
2021/11/24 06:11:22;;;;;;;16.27;8.83;;;;;;;;;;4905608;29;20647;-85
2021/11/24 06:14:26;;;;;;;14.67;8.73;;;;;;;;;;4905710;29;20629;-84
2021/11/24 06:17:30;;;;;;;13.70;8.27;;;;;;;;;;4905605;29;20679;-84
2021/11/24 06:20:36;;;;;;;12.53;8.60;;;;;;;;;;4905563;29;20608;-86
2021/11/24 06:23:41;;;;;;;14.23;8.43;;;;;;;;;;4909512;29;20980;-86
2021/11/24 06:26:45;;;;;;;12.70;8.63;;;;;;;;;;4880153;29;20645;-85
2021/11/24 06:29:49;;;;;;;16.50;9.20;;;;;;;;;;4890638;29;21092;-85
2021/11/24 06:32:53;;;;;;;16.50;9.10;;;;;;;;;;4907690;29;20598;-85
2021/11/24 06:35:57;;;;;;;18.97;10.20;;;;;;;;;;4909005;29;20651;-86
2021/11/24 06:39:02;;;;;;;16.80;10.27;;;;;;;;;;4898313;29;20599;-85
2021/11/24 06:42:07;;;;;;;30.13;13.67;;;;;;;;;;4898362;29;20560;-85
2021/11/24 06:45:12;;;;;;;29.53;14.87;;;;;;;;;;4900568;29;20601;-85
2021/11/24 06:48:16;;;;;;;30.23;14.73;;;;;;;;;;4903441;29;20638;-87
2021/11/24 06:51:21;;;;;;;61.27;27.97;;;;;;;;;;4905887;29;20544;-87
2021/11/24 06:54:25;;;;;;;53.97;24.73;;;;;;;;;;4916473;29;20592;-85
2021/11/24 06:57:29;;;;;;;38.83;19.27;;;;;;;;;;4905596;29;20671;-84
2021/11/24 07:00:34;;;;;;;37.80;19.13;;;;;;;;;;4898930;29;20544;-84
2021/11/24 07:03:38;;;;;;;37.97;18.97;;;;;;;;;;4919907;29;20552;-84
2021/11/24 07:06:42;;;;;;;39.30;20.33;;;;;;;;;;4908736;29;20646;-85
2021/11/24 07:09:46;;;;;;;42.43;19.37;;;;;;;;;;4897761;29;20612;-86
2021/11/24 07:12:50;;;;;;;40.87;18.17;;;;;;;;;;4919347;29;21103;-86
2021/11/24 07:15:54;;;;;;;32.63;17.63;;;;;;;;;;4908342;29;20640;-86
2021/11/24 07:18:59;;;;;;;35.63;18.97;;;;;;;;;;4898070;29;20616;-86
2021/11/24 07:22:03;;;;;;;28.63;17.00;;;;;;;;;;4897518;29;20908;-86
2021/11/24 07:25:08;;;;;;;32.80;16.57;;;;;;;;;;4909246;29;20548;-86
2021/11/24 07:28:14;;;;;;;32.03;17.33;;;;;;;;;;4919581;29;20556;-86
2021/11/24 07:31:18;;;;;;;27.50;16.17;;;;;;;;;;4918989;29;20956;-86
2021/11/24 07:34:22;;;;;;;26.00;15.13;;;;;;;;;;4918954;29;20580;-86
2021/11/24 07:37:26;;;;;;;26.40;14.77;;;;;;;;;;4907840;29;21265;-86
2021/11/24 07:40:30;;;;;;;26.03;14.47;;;;;;;;;;4908011;29;20621;-86
2021/11/24 07:43:34;;;;;;;29.20;15.47;;;;;;;;;;4908345;29;20549;-86
2021/11/24 07:46:38;;;;;;;25.57;15.07;;;;;;;;;;4908025;29;20639;-86
2021/11/24 07:49:42;;;;;;;26.80;15.23;;;;;;;;;;4908036;29;20556;-86
2021/11/24 07:52:46;;;;;;;27.37;15.03;;;;;;;;;;4908150;29;20544;-86
2021/11/24 07:55:50;;;;;;;29.90;14.10;;;;;;;;;;4918741;29;21320;-85
2021/11/24 07:58:54;;;;;;;27.67;14.93;;;;;;;;;;4919099;29;20607;-85
2021/11/24 08:01:58;;;;;;;26.87;14.10;;;;;;;;;;4907725;29;20556;-85
2021/11/24 08:05:04;;;;;;;27.33;15.03;;;;;;;;;;4918729;29;20920;-85
2021/11/24 08:08:08;;;;;;;33.23;14.50;;;;;;;;;;4918729;29;20548;-85
2021/11/24 08:11:13;;;;;;;32.03;15.07;;;;;;;;;;4918294;29;20560;-85
2021/11/24 08:14:17;;;;;;;27.30;15.27;;;;;;;;;;4906005;29;20624;-86
2021/11/24 08:17:21;;;;;;;25.23;14.00;;;;;;;;;;4929136;29;20639;-88
2021/11/24 08:20:25;;;;;;;27.70;13.90;;;;;;;;;;4896564;29;20568;-85
2021/11/24 08:23:30;;;;;;;29.53;14.20;;;;;;;;;;4897784;29;20560;-85
2021/11/24 08:26:34;;;;;;;31.00;15.50;;;;;;;;;;4918596;29;20635;-86
2021/11/24 08:29:37;;;;;;;26.23;14.57;;;;;;;;;;4907232;29;20553;-86
2021/11/24 08:32:42;;;;;;;29.97;16.33;;;;;;;;;;4877783;29;20545;-86
2021/11/24 08:35:48;;;;;;;32.27;16.83;;;;;;;;;;4888024;29;20984;-87
2021/11/24 08:38:52;;;;;;;28.93;15.73;;;;;;;;;;4899276;29;20605;-87
2021/11/24 08:41:56;;;;;;;27.37;14.43;;;;;;;;;;4898999;29;20617;-86
2021/11/24 08:45:01;;;;;;;31.37;14.57;;;;;;;;;;4897883;29;20621;-86
2021/11/24 08:48:05;;;;;;;25.83;14.03;;;;;;;;;;4898970;29;20604;-87
2021/11/24 08:51:09;;;;;;;27.57;13.83;;;;;;;;;;4898969;29;20561;-86
2021/11/24 08:54:13;;;;;;;26.30;14.30;;;;;;;;;;4887949;29;21119;-86
2021/11/24 08:57:18;;;;;;;27.23;13.70;;;;;;;;;;4898314;29;20636;-86
2021/11/24 09:00:23;;;;;;;26.87;13.37;;;;;;;;;;4899202;29;20601;-86
2021/11/24 09:03:27;;;;;;;26.07;13.40;;;;;;;;;;4898969;29;20558;-86
2021/11/24 09:06:32;;;;;;;23.43;12.20;;;;;;;;;;4898217;29;20604;-87
2021/11/24 09:09:39;;;;;;;25.83;12.60;;;;;;;;;;4877775;29;20550;-87
2021/11/24 09:12:43;;;;;;;23.90;12.20;;;;;;;;;;4898851;29;20561;-86
2021/11/24 09:15:48;;;;;;;27.80;13.57;;;;;;;;;;4887734;29;20640;-86
2021/11/24 09:18:52;;;;;;;23.50;12.93;;;;;;;;;;4887554;29;20665;-86
2021/11/24 09:21:56;;;;;;;30.13;14.87;;;;;;;;;;4895241;29;20577;-87
2021/11/24 09:25:00;;;;;;;30.83;14.77;;;;;;;;;;4884374;29;20572;-86
2021/11/24 09:28:13;;;;;;;27.90;14.03;;;;;;;;;;4895245;29;20605;-87
2021/11/24 09:31:17;;;;;;;30.53;14.17;;;;;;;;;;4884168;29;20961;-86
2021/11/24 09:34:23;;;;;;;27.90;14.20;;;;;;;;;;4894772;29;20616;-85
2021/11/24 09:37:28;;;;;;;30.93;14.13;;;;;;;;;;4884138;29;20656;-86
2021/11/24 09:40:34;;;;;;;27.27;14.13;;;;;;;;;;4892065;29;20600;-86
2021/11/24 09:43:46;;;;;;;27.40;13.80;;;;;;;;;;4902413;29;20616;-86
2021/11/24 09:46:51;;;;;;;28.97;14.27;;;;;;;;;;4902596;29;20639;-86
2021/11/24 09:49:57;;;;;;;33.67;14.77;;;;;;;;;;4902921;29;20980;-88
2021/11/24 09:53:02;;;;;;;28.77;14.00;;;;;;;;;;4891625;29;20616;-86
2021/11/24 09:56:07;;;;;;;30.53;13.77;;;;;;;;;;4905829;29;21273;-87
2021/11/24 09:59:13;;;;;;;26.60;13.37;;;;;;;;;;4917215;29;21219;-86
2021/11/24 10:02:18;;;;;;;29.30;13.73;;;;;;;;;;4895584;29;20608;-86
2021/11/24 10:05:25;;;;;;;33.83;14.83;;;;;;;;;;4906419;29;21148;-85
2021/11/24 10:08:32;;;;;;;33.63;15.17;;;;;;;;;;4895312;29;20615;-86
2021/11/24 10:11:38;;;;;;;31.60;13.93;;;;;;;;;;4895478;29;20631;-85
2021/11/24 10:14:43;;;;;;;30.30;13.87;;;;;;;;;;4882082;29;20885;-85
2021/11/24 10:17:47;;;;;;;28.33;14.60;;;;;;;;;;4906348;29;20572;-85
2021/11/24 10:20:55;;;;;;;31.50;14.47;;;;;;;;;;4905691;29;20633;-86
2021/11/24 10:24:05;;;;;;;30.30;14.53;;;;;;;;;;4918106;29;20581;-85
2021/11/24 10:27:12;;;;;;;33.43;14.80;;;;;;;;;;4898413;29;20659;-86
2021/11/24 10:30:30;;;;;;;31.70;14.40;;;;;;;;;;4894289;29;20621;-85
2021/11/24 10:33:34;;;;;;;30.83;14.93;;;;;;;;;;4890539;29;20561;-85
2021/11/24 10:37:06;;;;;;;30.03;13.53;;;;;;;;;;4929108;23;20692;-85
2021/11/24 10:40:11;;;;;;;33.90;14.87;;;;;;;;;;4966668;28;20593;-86
2021/11/24 10:43:16;;;;;;;29.87;13.60;;;;;;;;;;4966478;28;20558;-87
2021/11/24 10:46:26;;;;;;;30.90;14.30;;;;;;;;;;4966098;28;21203;-87
2021/11/24 10:49:51;;;;;;;27.70;13.33;;;;;;;;;;4977319;28;20595;-87
2021/11/24 10:52:55;;;;;;;29.83;14.60;;;;;;;;;;4966322;28;20560;-87
2021/11/24 10:56:07;;;;;;;30.93;14.27;;;;;;;;;;4966006;28;20956;-87
2021/11/24 10:59:18;;;;;;;24.53;13.30;;;;;;;;;;4965844;28;20621;-87
2021/11/24 11:02:25;;;;;;;24.47;11.50;;;;;;;;;;4966083;28;20597;-86
2021/11/24 11:05:30;;;;;;;26.90;13.17;;;;;;;;;;4954946;28;20604;-87
2021/11/24 11:08:34;;;;;;;24.27;12.57;;;;;;;;;;4972486;28;20616;-86
2021/11/24 11:11:39;;;;;;;22.83;11.67;;;;;;;;;;4946487;28;20633;-87
2021/11/24 11:14:43;;;;;;;23.13;12.63;;;;;;;;;;4971134;28;20602;-87
2021/11/24 11:18:00;;;;;;;20.87;11.43;;;;;;;;;;4953379;28;21002;-86
2021/11/24 11:21:08;;;;;;;22.00;10.83;;;;;;;;;;4950037;28;20918;-86
2021/11/24 11:24:12;;;;;;;21.33;10.90;;;;;;;;;;4962386;28;20604;-86
2021/11/24 11:27:16;;;;;;;21.83;11.17;;;;;;;;;;4950520;28;20652;-87
2021/11/24 11:30:20;;;;;;;23.30;11.93;;;;;;;;;;4943412;28;20934;-86
2021/11/24 11:33:32;;;;;;;21.17;11.60;;;;;;;;;;4942968;29;20629;-86
2021/11/24 11:36:36;;;;;;;25.00;13.67;;;;;;;;;;4954728;28;20669;-86
2021/11/24 11:39:40;;;;;;;25.50;12.57;;;;;;;;;;4948230;28;21251;-87
2021/11/24 11:42:48;;;;;;;23.43;12.23;;;;;;;;;;4949122;29;20594;-89
2021/11/24 11:45:52;;;;;;;25.07;12.97;;;;;;;;;;4951558;28;20609;-87
2021/11/24 11:49:06;;;;;;;26.50;12.00;;;;;;;;;;4948648;28;20589;-89
2021/11/24 11:52:13;;;;;;;25.63;13.20;;;;;;;;;;4954024;28;20587;-86
2021/11/24 11:55:17;;;;;;;20.40;11.37;;;;;;;;;;4944910;29;20641;-88
2021/11/24 11:58:28;;;;;;;22.17;12.10;;;;;;;;;;4943767;28;20595;-89
2021/11/24 12:01:53;;;;;;;22.60;11.83;;;;;;;;;;4944571;28;20570;-86
2021/11/24 12:05:04;;;;;;;23.80;11.53;;;;;;;;;;4943242;29;20567;-87
2021/11/24 12:08:10;;;;;;;22.77;11.50;;;;;;;;;;4935292;29;20654;-87
2021/11/24 12:11:15;;;;;;;20.80;11.67;;;;;;;;;;4936322;29;20572;-87
2021/11/24 12:14:38;;;;;;;17.73;11.47;;;;;;;;;;4954406;29;20910;-89
2021/11/24 12:17:55;;;;;;;21.17;10.67;;;;;;;;;;4953799;28;21208;-89
2021/11/24 12:20:59;;;;;;;18.20;11.20;;;;;;;;;;4932552;29;20571;-87
2021/11/24 12:24:08;;;;;;;20.20;10.97;;;;;;;;;;4932330;29;20614;-87
2021/11/24 12:27:12;;;;;;;19.70;10.10;;;;;;;;;;4933081;29;20653;-87
2021/11/24 12:33:48;;;;;;;23.10;11.87;;;;;;;;;;4943422;29;20572;-87
2021/11/24 12:36:52;;;;;;;17.70;10.43;;;;;;;;;;4944404;29;20630;-87
2021/11/24 12:39:56;;;;;;;18.40;10.50;;;;;;;;;;4944600;29;20650;-87
2021/11/24 12:43:03;;;;;;;17.30;9.23;;;;;;;;;;4947996;28;20633;-87
2021/11/24 12:46:23;;;;;;;16.70;9.30;;;;;;;;;;4952442;28;21338;-87
2021/11/24 12:49:27;;;;;;;18.00;9.93;;;;;;;;;;4952738;28;20909;-87
2021/11/24 12:52:31;;;;;;;16.47;10.33;;;;;;;;;;4962308;28;20563;-87
2021/11/24 12:55:35;;;;;;;20.33;10.83;;;;;;;;;;4942337;29;20610;-87
2021/11/24 12:58:41;;;;;;;22.77;12.00;;;;;;;;;;4937932;29;20608;-86
2021/11/24 13:01:50;;;;;;;20.20;11.50;;;;;;;;;;4955768;28;20601;-85
2021/11/24 13:04:54;;;;;;;18.23;10.83;;;;;;;;;;4971161;28;20586;-85
2021/11/24 13:07:59;;;;;;;20.47;10.77;;;;;;;;;;4940826;29;21247;-85
2021/11/24 13:11:07;;;;;;;18.17;11.27;;;;;;;;;;4951970;29;20575;-85
2021/11/24 13:14:11;;;;;;;21.50;10.63;;;;;;;;;;4941927;28;21188;-86
2021/11/24 13:17:25;;;;;;;18.23;10.47;;;;;;;;;;4934559;28;20688;-86
2021/11/24 13:20:32;;;;;;;14.07;9.17;;;;;;;;;;4936671;29;20670;-85
2021/11/24 13:23:36;;;;;;;18.63;10.27;;;;;;;;;;4947058;28;20602;-85
2021/11/24 13:26:52;;;;;;;16.13;9.77;;;;;;;;;;4949068;28;20722;-86
2021/11/24 13:30:00;;;;;;;19.93;10.03;;;;;;;;;;4948419;28;20976;-85
2021/11/24 13:33:07;;;;;;;14.63;9.53;;;;;;;;;;4958734;28;20602;-85
2021/11/24 13:36:13;;;;;;;16.33;9.40;;;;;;;;;;4946383;28;21031;-87
2021/11/24 13:39:24;;;;;;;17.53;10.20;;;;;;;;;;4929875;29;20622;-85
2021/11/24 13:42:35;;;;;;;14.70;10.07;;;;;;;;;;4940651;29;20570;-85
2021/11/24 13:45:41;;;;;;;18.27;10.47;;;;;;;;;;4940836;29;20575;-85
2021/11/24 13:48:47;;;;;;;18.73;10.97;;;;;;;;;;4944191;28;20678;-86
2021/11/24 13:52:08;;;;;;;18.23;10.17;;;;;;;;;;4949812;28;20577;-87
2021/11/24 13:55:16;;;;;;;17.43;9.70;;;;;;;;;;4960333;28;20578;-86
2021/11/24 13:58:23;;;;;;;19.00;11.00;;;;;;;;;;4952871;28;20813;-87
2021/11/24 14:01:32;;;;;;;17.27;9.80;;;;;;;;;;4954579;28;20609;-86
2021/11/24 14:04:48;;;;;;;17.97;10.00;;;;;;;;;;4947765;28;20577;-86
2021/11/24 14:07:52;;;;;;;16.77;8.83;;;;;;;;;;4955652;29;20645;-87
2021/11/24 14:10:57;;;;;;;13.93;8.80;;;;;;;;;;4933149;29;20595;-87
2021/11/24 14:14:10;;;;;;;14.47;8.37;;;;;;;;;;4931599;29;20547;-86
2021/11/24 14:17:30;;;;;;;14.80;9.23;;;;;;;;;;4940706;29;20654;-86
2021/11/24 14:20:36;;;;;;;14.47;8.97;;;;;;;;;;4944457;29;20596;-86
2021/11/24 14:23:40;;;;;;;12.70;8.63;;;;;;;;;;4955411;28;20555;-87
2021/11/24 14:26:44;;;;;;;14.73;9.00;;;;;;;;;;4939388;28;20645;-85
2021/11/24 14:29:48;;;;;;;15.70;9.40;;;;;;;;;;4952527;28;20547;-86
2021/11/24 14:32:55;;;;;;;18.43;9.10;;;;;;;;;;4952415;28;20534;-87
2021/11/24 14:35:59;;;;;;;17.33;9.20;;;;;;;;;;4933332;29;21145;-86
2021/11/24 14:39:03;;;;;;;15.30;9.10;;;;;;;;;;4936617;28;20586;-85
2021/11/24 14:42:07;;;;;;;15.03;9.10;;;;;;;;;;4953852;28;20531;-86
2021/11/24 14:45:13;;;;;;;14.97;9.03;;;;;;;;;;4947005;29;20599;-86
2021/11/24 14:48:17;;;;;;;13.13;8.53;;;;;;;;;;4936345;29;20603;-86
2021/11/24 14:51:21;;;;;;;16.60;8.90;;;;;;;;;;4937360;28;20619;-86
2021/11/24 14:54:26;;;;;;;12.73;7.83;;;;;;;;;;4938984;28;21144;-85
2021/11/24 14:57:30;;;;;;;13.57;8.50;;;;;;;;;;4948797;28;20646;-87
2021/11/24 15:00:59;;;;;;;11.90;8.00;;;;;;;;;;4935882;29;20611;-90
2021/11/24 15:04:04;;;;;;;12.27;8.20;;;;;;;;;;4946829;29;20547;-86
2021/11/24 15:07:10;;;;;;;14.67;8.93;;;;;;;;;;4935876;29;20630;-86
2021/11/24 15:10:17;;;;;;;14.60;8.63;;;;;;;;;;4935995;29;20540;-86
2021/11/24 15:13:21;;;;;;;17.10;8.93;;;;;;;;;;4936319;29;20540;-86
2021/11/24 15:16:25;;;;;;;13.27;8.53;;;;;;;;;;4936738;29;20627;-86
2021/11/24 15:19:29;;;;;;;12.87;8.20;;;;;;;;;;4946982;29;20598;-86
2021/11/24 15:22:34;;;;;;;11.70;7.90;;;;;;;;;;4939429;28;20586;-87
2021/11/24 15:25:39;;;;;;;16.53;9.93;;;;;;;;;;4955349;28;20539;-85
2021/11/24 15:28:43;;;;;;;16.90;9.07;;;;;;;;;;4946016;29;20618;-85
2021/11/24 15:31:50;;;;;;;12.17;8.07;;;;;;;;;;4938005;28;20956;-86
2021/11/24 15:34:55;;;;;;;29.33;10.30;;;;;;;;;;4954803;28;20175;-88
2021/11/24 15:37:59;;;;;;;11.80;8.47;;;;;;;;;;4945795;29;20235;-90
2021/11/24 15:41:05;;;;;;;21.77;12.30;;;;;;;;;;4935756;29;20219;-91
2021/11/24 15:44:12;;;;;;;15.33;9.67;;;;;;;;;;4949009;28;20225;-89
2021/11/24 15:47:16;;;;;;;29.03;16.17;;;;;;;;;;4947992;28;20223;-86
2021/11/24 15:50:21;;;;;;;29.60;17.03;;;;;;;;;;4948076;28;20562;-86
2021/11/24 15:53:24;;;;;;;43.77;23.00;;;;;;;;;;4954292;28;20538;-86
2021/11/24 15:56:29;;;;;;;17.10;10.93;;;;;;;;;;4951024;28;20231;-86
2021/11/24 15:59:33;;;;;;;18.97;11.53;;;;;;;;;;4946246;28;20610;-86
2021/11/24 16:02:39;;;;;;;18.33;11.20;;;;;;;;;;4945799;29;20614;-85
2021/11/24 16:05:43;;;;;;;20.13;11.97;;;;;;;;;;4946376;29;20546;-85
2021/11/24 16:08:47;;;;;;;18.07;10.97;;;;;;;;;;4934960;29;20918;-85
2021/11/24 16:11:55;;;;;;;15.83;10.83;;;;;;;;;;4962194;28;20596;-90
2021/11/24 16:15:00;;;;;;;14.20;9.47;;;;;;;;;;4941201;28;20606;-88
2021/11/24 16:18:04;;;;;;;15.67;10.83;;;;;;;;;;4953562;28;20629;-86
2021/11/24 16:21:08;;;;;;;16.17;10.23;;;;;;;;;;4953771;28;21017;-86
2021/11/24 16:24:15;;;;;;;13.97;8.77;;;;;;;;;;4953744;28;20553;-86
2021/11/24 16:27:19;;;;;;;15.90;9.77;;;;;;;;;;4975769;28;20953;-87
2021/11/24 16:30:23;;;;;;;19.80;10.97;;;;;;;;;;4954038;28;20598;-86
2021/11/24 16:33:27;;;;;;;14.30;9.87;;;;;;;;;;4964811;28;20593;-86
2021/11/24 16:36:32;;;;;;;16.80;10.27;;;;;;;;;;4999377;23;21238;-87
2021/11/24 16:39:36;;;;;;;16.83;10.10;;;;;;;;;;4933377;29;20629;-86
2021/11/24 16:42:40;;;;;;;17.53;10.23;;;;;;;;;;4942168;29;20614;-91
2021/11/24 16:45:45;;;;;;;16.67;9.87;;;;;;;;;;4934012;29;20554;-86
2021/11/24 16:48:49;;;;;;;13.67;8.63;;;;;;;;;;4917099;29;21242;-87
2021/11/24 16:51:53;;;;;;;14.87;8.67;;;;;;;;;;4927469;29;20589;-86
2021/11/24 16:54:57;;;;;;;14.57;8.90;;;;;;;;;;4936730;29;20600;-86
2021/11/24 16:58:02;;;;;;;13.60;9.40;;;;;;;;;;4937525;29;20623;-83
2021/11/24 17:01:06;;;;;;;14.00;9.47;;;;;;;;;;4936673;29;20636;-83
2021/11/24 17:04:10;;;;;;;16.77;10.07;;;;;;;;;;4917617;29;20608;-83
2021/11/24 17:07:14;;;;;;;12.57;9.07;;;;;;;;;;4917736;29;20984;-84
2021/11/24 17:10:18;;;;;;;14.93;9.27;;;;;;;;;;4918739;29;20542;-83
2021/11/24 17:13:23;;;;;;;14.63;8.93;;;;;;;;;;4937030;29;20596;-86
2021/11/24 17:16:27;;;;;;;12.67;8.40;;;;;;;;;;4933708;29;20576;-86
2021/11/24 17:19:31;;;;;;;14.73;9.63;;;;;;;;;;4943680;29;20560;-87
2021/11/24 17:22:35;;;;;;;13.00;9.50;;;;;;;;;;4936026;29;20627;-87
2021/11/24 17:25:43;;;;;;;14.17;9.27;;;;;;;;;;4931977;29;20611;-87
2021/11/24 17:28:48;;;;;;;14.63;9.27;;;;;;;;;;4932015;29;20636;-88
2021/11/24 17:31:52;;;;;;;13.50;9.07;;;;;;;;;;4921034;29;20596;-87
2021/11/24 17:34:56;;;;;;;13.33;8.73;;;;;;;;;;4921218;29;20564;-88
2021/11/24 17:38:01;;;;;;;13.80;9.50;;;;;;;;;;4921302;29;20647;-87
2021/11/24 17:41:05;;;;;;;12.90;8.50;;;;;;;;;;4931143;29;20659;-87
2021/11/24 17:44:10;;;;;;;14.40;9.10;;;;;;;;;;4931818;29;20623;-88
2021/11/24 17:47:15;;;;;;;18.03;8.87;;;;;;;;;;4932497;29;20991;-85
2021/11/24 17:50:19;;;;;;;14.23;8.70;;;;;;;;;;4931088;29;20631;-84
2021/11/24 17:53:23;;;;;;;12.57;8.90;;;;;;;;;;4920826;29;20607;-85
2021/11/24 17:56:29;;;;;;;14.43;9.10;;;;;;;;;;4933626;29;21118;-85
2021/11/24 17:59:33;;;;;;;13.90;9.13;;;;;;;;;;4932105;29;20584;-85
2021/11/24 18:02:37;;;;;;;14.70;9.73;;;;;;;;;;4942580;29;20647;-85
2021/11/24 18:05:43;;;;;;;16.77;10.13;;;;;;;;;;4931631;29;20599;-84
2021/11/24 18:08:47;;;;;;;12.27;9.07;;;;;;;;;;4931536;29;20665;-84
2021/11/24 18:11:52;;;;;;;13.43;9.70;;;;;;;;;;4923505;29;21143;-85
2021/11/24 18:14:55;;;;;;;12.07;8.93;;;;;;;;;;4913342;29;20577;-85